createdAt,value
2018-08-22T00:01:23.851Z,101888.63
2018-08-22T00:03:52.995Z,101886.41
2018-08-22T00:06:22.045Z,101887.45
2018-08-22T00:08:51.167Z,101883.97
2018-08-22T00:11:20.418Z,101874.92
2018-08-22T00:13:49.472Z,101870.07
2018-08-22T00:16:18.561Z,101872.39
2018-08-22T00:18:47.615Z,101871.42
2018-08-22T00:21:16.670Z,101870.33
2018-08-22T00:23:45.735Z,101870.81
2018-08-22T00:26:14.922Z,101865.97
2018-08-22T00:28:44.038Z,101869.64
2018-08-22T00:31:13.103Z,101867.02
2018-08-22T00:33:42.216Z,101868.44
2018-08-22T00:36:11.317Z,101865.17
2018-08-22T00:38:40.367Z,101870.27
2018-08-22T00:41:09.436Z,101865.73
2018-08-22T00:43:38.592Z,101860.51
2018-08-22T00:46:07.700Z,101858.37
2018-08-22T00:48:36.778Z,101856.08
2018-08-22T00:51:05.879Z,101859.72
2018-08-22T00:53:35.010Z,101859.83
2018-08-22T00:56:04.098Z,101859.34
2018-08-22T00:58:33.396Z,101866.48
2018-08-22T01:01:02.468Z,101858.96
2018-08-22T01:03:31.527Z,101864.36
2018-08-22T01:06:00.607Z,101858.06
2018-08-22T01:08:29.667Z,101852.28
2018-08-22T01:10:58.755Z,101851.41
2018-08-22T01:13:27.903Z,101853.63
2018-08-22T01:15:56.965Z,101846.08
2018-08-22T01:18:26.041Z,101848.78
2018-08-22T01:20:55.141Z,101839.88
2018-08-22T01:23:24.243Z,101841.72
2018-08-22T01:25:53.326Z,101836.80
2018-08-22T01:28:22.385Z,101837.59
2018-08-22T01:30:51.538Z,101834.59
2018-08-22T01:33:20.621Z,101836.80
2018-08-22T01:35:49.885Z,101838.16
2018-08-22T01:38:19.237Z,101838.16
2018-08-22T01:40:48.427Z,101839.50
2018-08-22T01:43:17.527Z,101829.75
2018-08-22T01:45:46.631Z,101832.06
2018-08-22T01:48:15.724Z,101825.77
2018-08-22T01:50:45.087Z,101819.98
2018-08-22T01:53:14.197Z,101822.12
2018-08-22T01:55:43.387Z,101818.56
2018-08-22T01:58:12.695Z,101819.98
2018-08-22T02:00:41.806Z,101821.33
2018-08-22T02:03:10.902Z,101822.69
2018-08-22T02:05:43.065Z,101817.28
2018-08-22T02:08:12.153Z,101816.48
2018-08-22T02:10:41.253Z,101812.81
2018-08-22T02:13:10.369Z,101815.06
2018-08-22T02:15:39.413Z,101816.72
2018-08-22T02:18:08.546Z,101813.23
2018-08-22T02:20:37.621Z,101816.48
2018-08-22T02:23:06.952Z,101813.61
2018-08-22T02:25:36.014Z,101802.91
2018-08-22T02:28:05.162Z,101804.15
2018-08-22T02:30:34.228Z,101803.36
2018-08-22T02:33:03.344Z,101799.23
2018-08-22T02:35:32.407Z,101795.36
2018-08-22T02:38:01.679Z,101795.84
2018-08-22T02:40:30.816Z,101801.07
2018-08-22T02:42:59.883Z,101798.37
2018-08-22T02:45:29.012Z,101796.23
2018-08-22T02:47:58.091Z,101795.84
2018-08-22T02:50:27.305Z,101795.44
2018-08-22T02:52:56.403Z,101793.53
2018-08-22T02:55:25.474Z,101790.44
2018-08-22T02:57:54.569Z,101793.04
2018-08-22T03:00:23.719Z,101791.20
2018-08-22T03:02:52.862Z,101798.75
2018-08-22T03:05:22.228Z,101796.45
2018-08-22T03:07:51.399Z,101798.85
2018-08-22T03:10:20.591Z,101799.48
2018-08-22T03:12:49.715Z,101794.19
2018-08-22T03:15:18.891Z,101796.00
2018-08-22T03:17:48.093Z,101791.08
2018-08-22T03:20:17.287Z,101786.23
2018-08-22T03:22:46.381Z,101784.02
2018-08-22T03:25:15.505Z,101783.23
2018-08-22T03:27:44.686Z,101783.53
2018-08-22T03:30:13.772Z,101779.97
2018-08-22T03:32:42.864Z,101780.15
2018-08-22T03:35:11.956Z,101774.82
2018-08-22T03:37:41.022Z,101775.30
2018-08-22T03:40:10.160Z,101770.39
2018-08-22T03:42:39.343Z,101776.17
2018-08-22T03:45:08.430Z,101776.77
2018-08-22T03:47:37.504Z,101772.61
2018-08-22T03:50:06.869Z,101774.92
2018-08-22T03:52:35.922Z,101769.59
2018-08-22T03:55:04.986Z,101772.41
2018-08-22T03:57:34.078Z,101771.05
2018-08-22T04:00:03.229Z,101771.44
2018-08-22T04:02:32.296Z,101774.14
2018-08-22T04:05:01.406Z,101769.30
2018-08-22T04:07:30.662Z,101776.91
2018-08-22T04:09:59.758Z,101775.00
2018-08-22T04:12:28.894Z,101771.44
2018-08-22T04:14:57.996Z,101777.32
2018-08-22T04:17:31.499Z,101772.17
2018-08-22T04:20:00.578Z,101769.06
2018-08-22T04:22:29.646Z,101768.91
2018-08-22T04:24:58.638Z,101769.06
2018-08-22T04:27:27.780Z,101766.84
2018-08-22T04:29:56.912Z,101768.13
2018-08-22T04:32:26.044Z,101771.20
2018-08-22T04:34:55.190Z,101770.41
2018-08-22T04:37:24.335Z,101767.64
2018-08-22T04:39:53.561Z,101766.95
2018-08-22T04:42:22.677Z,101766.84
2018-08-22T04:44:51.999Z,101767.71
2018-08-22T04:47:21.062Z,101764.94
2018-08-22T04:49:50.128Z,101773.52
2018-08-22T04:52:19.267Z,101776.22
2018-08-22T04:54:48.326Z,101770.89
2018-08-22T04:57:17.430Z,101773.29
2018-08-22T04:59:46.538Z,101775.51
2018-08-22T05:02:15.639Z,101780.53
2018-08-22T05:04:44.702Z,101781.39
2018-08-22T05:07:13.827Z,101779.10
2018-08-22T05:09:42.907Z,101778.20
2018-08-22T05:12:11.895Z,101775.05
2018-08-22T05:14:41.014Z,101768.75
2018-08-22T05:17:09.996Z,101774.08
2018-08-22T05:19:39.123Z,101775.99
2018-08-22T05:22:08.210Z,101776.41
2018-08-22T05:24:37.334Z,101771.56
2018-08-22T05:27:06.629Z,101773.70
2018-08-22T05:29:35.786Z,101779.48
2018-08-22T05:32:04.923Z,101775.81
2018-08-22T05:34:33.988Z,101776.41
2018-08-22T05:37:03.071Z,101780.05
2018-08-22T05:39:32.180Z,101776.78
2018-08-22T05:42:01.263Z,101776.78
2018-08-22T05:44:30.392Z,101778.44
2018-08-22T05:46:59.459Z,101776.22
2018-08-22T05:49:28.562Z,101775.81
2018-08-22T05:51:57.551Z,101779.48
2018-08-22T05:54:26.630Z,101779.48
2018-08-22T05:56:55.707Z,101779.10
2018-08-22T05:59:24.851Z,101783.05
2018-08-22T06:01:53.907Z,101769.96
2018-08-22T06:04:23.025Z,101778.37
2018-08-22T06:06:52.020Z,101775.11
2018-08-22T06:09:21.136Z,101772.78
2018-08-22T06:11:50.231Z,101773.16
2018-08-22T06:14:19.303Z,101777.22
2018-08-22T06:16:48.371Z,101771.36
2018-08-22T06:19:17.448Z,101766.41
2018-08-22T06:21:46.583Z,101772.53
2018-08-22T06:24:15.703Z,101765.67
2018-08-22T06:26:44.787Z,101770.70
2018-08-22T06:29:13.871Z,101767.02
2018-08-22T06:31:43.011Z,101773.70
2018-08-22T06:34:12.203Z,101770.44
2018-08-22T06:36:41.367Z,101774.80
2018-08-22T06:39:11.481Z,101771.98
2018-08-22T06:41:40.872Z,101773.01
2018-08-22T06:44:10.045Z,101771.77
2018-08-22T06:46:39.300Z,101771.22
2018-08-22T06:49:08.400Z,101769.30
2018-08-22T06:51:37.707Z,101767.39
2018-08-22T06:54:06.950Z,101767.20
2018-08-22T06:56:36.051Z,101768.06
2018-08-22T06:59:05.238Z,101769.12
2018-08-22T07:01:34.356Z,101767.09
2018-08-22T07:04:03.440Z,101768.19
2018-08-22T07:06:32.540Z,101764.05
2018-08-22T07:09:01.686Z,101768.67
2018-08-22T07:11:30.785Z,101770.73
2018-08-22T07:13:59.943Z,101771.71
2018-08-22T07:16:29.176Z,101770.99
2018-08-22T07:18:58.292Z,101774.59
2018-08-22T07:21:27.387Z,101777.11
2018-08-22T07:23:56.468Z,101783.87
2018-08-22T07:26:25.728Z,101777.56
2018-08-22T07:28:54.962Z,101785.06
2018-08-22T07:31:24.028Z,101789.58
2018-08-22T07:33:53.242Z,101789.50
2018-08-22T07:36:22.350Z,101791.64
2018-08-22T07:38:51.461Z,101791.10
2018-08-22T07:41:20.535Z,101789.45
2018-08-22T07:43:49.636Z,101778.66
2018-08-22T07:46:18.722Z,101786.30
2018-08-22T07:48:47.821Z,101787.50
2018-08-22T07:51:16.947Z,101782.97
2018-08-22T07:53:46.030Z,101782.37
2018-08-22T07:56:15.092Z,101780.58
2018-08-22T07:58:44.433Z,101778.38
2018-08-22T08:01:13.515Z,101784.47
2018-08-22T08:03:42.603Z,101775.02
2018-08-22T08:06:11.699Z,101780.31
2018-08-22T08:08:40.830Z,101779.95
2018-08-22T08:11:10.057Z,101776.27
2018-08-22T08:13:39.188Z,101782.19
2018-08-22T08:16:08.311Z,101775.59
2018-08-22T08:18:37.405Z,101775.30
2018-08-22T08:21:06.492Z,101774.36
2018-08-22T08:23:35.562Z,101775.39
2018-08-22T08:26:04.743Z,101779.45
2018-08-22T08:28:33.992Z,101784.58
2018-08-22T08:31:03.172Z,101787.20
2018-08-22T08:33:32.341Z,101781.50
2018-08-22T08:36:01.487Z,101778.78
2018-08-22T08:38:30.779Z,101783.25
2018-08-22T08:41:05.302Z,101778.10
2018-08-22T08:43:34.960Z,101780.32
2018-08-22T08:46:04.443Z,101782.83
2018-08-22T08:48:33.843Z,101782.25
2018-08-22T08:51:03.018Z,101780.32
2018-08-22T08:53:32.415Z,101782.83
2018-08-22T08:56:01.834Z,101780.91
2018-08-22T08:58:31.067Z,101776.06
2018-08-22T09:01:00.236Z,101770.65
2018-08-22T09:03:29.305Z,101769.30
2018-08-22T09:05:58.525Z,101770.19
2018-08-22T09:08:27.600Z,101769.99
2018-08-22T09:10:56.716Z,101772.79
2018-08-22T09:13:25.809Z,101777.62
2018-08-22T09:15:54.879Z,101773.85
2018-08-22T09:18:23.971Z,101769.13
2018-08-22T09:20:53.596Z,101766.71
2018-08-22T09:23:22.711Z,101767.37
2018-08-22T09:25:51.807Z,101767.95
2018-08-22T09:28:20.975Z,101759.45
2018-08-22T09:30:50.097Z,101768.16
2018-08-22T09:33:19.273Z,101761.17
2018-08-22T09:35:48.398Z,101762.99
2018-08-22T09:38:17.693Z,101761.18
2018-08-22T09:40:46.872Z,101766.69
2018-08-22T09:43:16.117Z,101762.99
2018-08-22T09:45:45.466Z,101761.55
2018-08-22T09:48:14.519Z,101770.75
2018-08-22T09:50:43.681Z,101758.19
2018-08-22T09:53:12.923Z,101760.13
2018-08-22T09:55:42.063Z,101756.84
2018-08-22T09:58:11.156Z,101758.77
2018-08-22T10:00:45.878Z,101754.02
2018-08-22T10:03:15.144Z,101755.77
2018-08-22T10:05:44.215Z,101748.80
2018-08-22T10:08:13.288Z,101750.73
2018-08-22T10:10:42.367Z,101749.38
2018-08-22T10:13:11.626Z,101757.04
2018-08-22T10:15:40.980Z,101754.99
2018-08-22T10:18:10.190Z,101751.91
2018-08-22T10:20:39.271Z,101744.08
2018-08-22T10:23:08.402Z,101746.70
2018-08-22T10:25:37.566Z,101755.86
2018-08-22T10:28:06.654Z,101743.39
2018-08-22T10:30:35.859Z,101744.86
2018-08-22T10:33:05.043Z,101742.81
2018-08-22T10:35:34.262Z,101749.70
2018-08-22T10:38:03.468Z,101744.28
2018-08-22T10:40:32.568Z,101735.47
2018-08-22T10:43:01.665Z,101737.23
2018-08-22T10:45:30.756Z,101739.32
2018-08-22T10:47:59.998Z,101741.66
2018-08-22T10:50:29.377Z,101743.39
2018-08-22T10:52:58.455Z,101744.45
2018-08-22T10:55:27.568Z,101751.70
2018-08-22T10:57:56.804Z,101749.98
2018-08-22T11:00:25.890Z,101751.50
2018-08-22T11:02:55.033Z,101742.44
2018-08-22T11:05:24.137Z,101745.23
2018-08-22T11:07:53.234Z,101748.14
2018-08-22T11:10:22.303Z,101746.20
2018-08-22T11:12:51.390Z,101754.24
2018-08-22T11:15:20.523Z,101756.34
2018-08-22T11:17:49.826Z,101748.83
2018-08-22T11:20:19.004Z,101754.41
2018-08-22T11:22:59.620Z,101751.34
2018-08-22T11:25:40.309Z,101751.05
2018-08-22T11:28:20.764Z,101751.22
2018-08-22T11:31:01.187Z,101749.58
2018-08-22T11:33:41.780Z,101759.83
2018-08-22T11:36:09.812Z,101753.92
2018-08-22T11:38:38.903Z,101746.20
2018-08-22T11:41:08.137Z,101755.47
2018-08-22T11:43:37.805Z,101748.25
2018-08-22T11:46:06.901Z,101756.08
2018-08-22T11:48:35.988Z,101757.23
2018-08-22T11:51:05.605Z,101749.89
2018-08-22T11:53:34.659Z,101752.89
2018-08-22T11:56:03.848Z,101754.81
2018-08-22T11:58:33.068Z,101746.87
2018-08-22T12:01:02.170Z,101754.81
2018-08-22T12:03:31.384Z,101747.19
2018-08-22T12:06:00.549Z,101751.25
2018-08-22T12:08:29.672Z,101744.94
2018-08-22T12:10:58.952Z,101741.08
2018-08-22T12:13:28.059Z,101734.11
2018-08-22T12:15:57.173Z,101739.72
2018-08-22T12:18:26.286Z,101737.70
2018-08-22T12:20:55.473Z,101733.53
2018-08-22T12:23:24.574Z,101729.47
2018-08-22T12:25:53.864Z,101730.05
2018-08-22T12:28:22.975Z,101724.55
2018-08-22T12:30:52.081Z,101735.87
2018-08-22T12:33:21.251Z,101733.53
2018-08-22T12:35:50.374Z,101726.59
2018-08-22T12:38:19.442Z,101729.30
2018-08-22T12:40:48.529Z,101725.53
2018-08-22T12:43:18.371Z,101725.53
2018-08-22T12:45:47.415Z,101724.75
2018-08-22T12:48:16.569Z,101722.53
2018-08-22T12:50:45.639Z,101718.64
2018-08-22T12:53:14.724Z,101722.53
2018-08-22T12:55:43.832Z,101719.62
2018-08-22T12:58:12.944Z,101721.84
2018-08-22T13:00:42.032Z,101723.69
2018-08-22T13:03:11.162Z,101719.70
2018-08-22T13:05:40.301Z,101717.70
2018-08-22T13:08:09.409Z,101705.52
2018-08-22T13:10:38.502Z,101711.79
2018-08-22T13:13:07.724Z,101717.41
2018-08-22T13:15:36.875Z,101711.79
2018-08-22T13:18:06.099Z,101711.59
2018-08-22T13:20:35.161Z,101709.66
2018-08-22T13:23:04.323Z,101710.52
2018-08-22T13:25:33.487Z,101701.54
2018-08-22T13:28:02.742Z,101705.52
2018-08-22T13:30:31.890Z,101709.09
2018-08-22T13:33:01.100Z,101712.66
2018-08-22T13:35:30.188Z,101706.58
2018-08-22T13:37:59.483Z,101700.67
2018-08-22T13:40:28.596Z,101695.63
2018-08-22T13:42:57.675Z,101702.98
2018-08-22T13:45:26.794Z,101704.33
2018-08-22T13:47:55.891Z,101703.30
2018-08-22T13:50:25.067Z,101702.60
2018-08-22T13:52:54.133Z,101696.81
2018-08-22T13:55:23.199Z,101702.11
2018-08-22T13:57:52.338Z,101702.60
2018-08-22T14:00:21.461Z,101697.48
2018-08-22T14:02:51.619Z,101701.94
2018-08-22T14:05:20.702Z,101699.89
2018-08-22T14:07:49.860Z,101683.45
2018-08-22T14:10:18.915Z,101691.00
2018-08-22T14:12:48.091Z,101690.71
2018-08-22T14:15:17.276Z,101693.33
2018-08-22T14:17:46.307Z,101689.27
2018-08-22T14:20:15.418Z,101689.56
2018-08-22T14:22:44.495Z,101688.38
2018-08-22T14:25:13.652Z,101692.27
2018-08-22T14:27:42.842Z,101683.45
2018-08-22T14:30:11.934Z,101684.43
2018-08-22T14:32:41.205Z,101682.67
2018-08-22T14:35:10.421Z,101682.18
2018-08-22T14:37:39.545Z,101682.59
2018-08-22T14:40:08.689Z,101686.08
2018-08-22T14:42:37.932Z,101684.23
2018-08-22T14:45:07.487Z,101683.86
2018-08-22T14:47:36.791Z,101683.25
2018-08-22T14:50:06.799Z,101675.73
2018-08-22T14:52:36.216Z,101678.24
2018-08-22T14:55:05.371Z,101672.62
2018-08-22T14:57:34.612Z,101669.05
2018-08-22T15:00:03.736Z,101678.44
2018-08-22T15:02:33.018Z,101672.83
2018-08-22T15:05:02.115Z,101666.63
2018-08-22T15:07:31.395Z,101664.91
2018-08-22T15:10:00.446Z,101667.33
2018-08-22T15:12:29.519Z,101667.70
2018-08-22T15:14:58.645Z,101654.66
2018-08-22T15:17:27.823Z,101656.18
2018-08-22T15:19:56.904Z,101650.87
2018-08-22T15:22:26.169Z,101656.78
2018-08-22T15:24:55.307Z,101654.36
2018-08-22T15:27:24.417Z,101649.32
2018-08-22T15:29:53.748Z,101662.00
2018-08-22T15:32:23.365Z,101653.01
2018-08-22T15:34:54.336Z,101649.69
2018-08-22T15:37:24.140Z,101655.52
2018-08-22T15:39:53.271Z,101653.67
2018-08-22T15:42:22.332Z,101656.58
2018-08-22T15:44:51.454Z,101663.35
2018-08-22T15:47:20.731Z,101650.59
2018-08-22T15:49:49.983Z,101651.54
2018-08-22T15:52:19.058Z,101653.58
2018-08-22T15:55:03.859Z,101653.46
2018-08-22T15:57:48.301Z,101647.69
2018-08-22T16:00:36.595Z,101640.34
2018-08-22T16:03:07.004Z,101637.72
2018-08-22T16:05:36.954Z,101636.77
2018-08-22T16:08:06.323Z,101641.28
2018-08-22T16:10:35.391Z,101636.77
2018-08-22T16:13:04.451Z,101638.34
2018-08-22T16:15:34.940Z,101630.88
2018-08-22T16:18:07.407Z,101627.95
2018-08-22T16:20:43.533Z,101623.53
2018-08-22T16:23:12.613Z,101614.15
2018-08-22T16:25:43.938Z,101615.33
2018-08-22T16:28:13.070Z,101617.91
2018-08-22T16:30:42.405Z,101617.70
2018-08-22T16:33:11.823Z,101618.60
2018-08-22T16:35:41.000Z,101613.56
2018-08-22T16:38:11.249Z,101615.89
2018-08-22T16:40:41.984Z,101612.48
2018-08-22T16:43:11.144Z,101607.66
2018-08-22T16:45:46.091Z,101612.70
2018-08-22T16:48:18.183Z,101608.93
2018-08-22T16:50:47.438Z,101608.56
2018-08-22T16:53:16.531Z,101610.09
2018-08-22T16:55:46.219Z,101613.86
2018-08-22T16:58:16.054Z,101613.08
2018-08-22T17:00:46.803Z,101611.27
2018-08-22T17:03:15.887Z,101611.15
2018-08-22T17:05:44.971Z,101609.22
2018-08-22T17:08:14.142Z,101609.80
2018-08-22T17:10:54.620Z,101603.15
2018-08-22T17:13:32.726Z,101601.32
2018-08-22T17:16:02.348Z,101597.45
2018-08-22T17:18:31.540Z,101596.48
2018-08-22T17:21:00.652Z,101596.84
2018-08-22T17:23:29.850Z,101601.11
2018-08-22T17:25:59.131Z,101595.20
2018-08-22T17:28:33.704Z,101598.98
2018-08-22T17:31:03.588Z,101597.25
2018-08-22T17:33:36.723Z,101595.41
2018-08-22T17:36:06.773Z,101599.47
2018-08-22T17:38:35.984Z,101599.75
2018-08-22T17:41:05.196Z,101605.53
2018-08-22T17:43:49.824Z,101604.18
2018-08-22T17:46:19.054Z,101592.90
2018-08-22T17:48:48.241Z,101591.94
2018-08-22T17:51:17.442Z,101599.36
2018-08-22T17:53:46.634Z,101595.41
2018-08-22T17:56:15.752Z,101597.34
2018-08-22T17:58:44.880Z,101592.70
2018-08-22T18:01:13.948Z,101595.41
2018-08-22T18:03:43.089Z,101596.39
2018-08-22T18:06:12.220Z,101592.05
2018-08-22T18:08:41.499Z,101590.37
2018-08-22T18:11:10.727Z,101587.00
2018-08-22T18:13:39.806Z,101582.86
2018-08-22T18:16:08.919Z,101585.07
2018-08-22T18:18:38.005Z,101590.98
2018-08-22T18:21:07.083Z,101590.41
2018-08-22T18:23:39.040Z,101598.11
2018-08-22T18:26:08.143Z,101592.42
2018-08-22T18:28:37.236Z,101595.33
2018-08-22T18:31:06.507Z,101590.98
2018-08-22T18:33:45.880Z,101598.89
2018-08-22T18:36:15.115Z,101604.68
2018-08-22T18:38:57.459Z,101600.34
2018-08-22T18:41:26.563Z,101604.39
2018-08-22T18:43:55.639Z,101601.69
2018-08-22T18:46:25.927Z,101602.67
2018-08-22T18:48:55.010Z,101608.57
2018-08-22T18:51:24.393Z,101614.24
2018-08-22T18:53:53.466Z,101611.45
2018-08-22T18:56:22.906Z,101615.02
2018-08-22T18:58:52.000Z,101612.40
2018-08-22T19:01:21.103Z,101614.24
2018-08-22T19:03:50.296Z,101612.41
2018-08-22T19:06:19.400Z,101606.50
2018-08-22T19:08:48.489Z,101612.41
2018-08-22T19:11:17.586Z,101605.14
2018-08-22T19:13:46.654Z,101611.05
2018-08-22T19:16:15.725Z,101611.54
2018-08-22T19:18:44.779Z,101614.24
2018-08-22T19:21:13.870Z,101618.09
2018-08-22T19:23:44.788Z,101614.73
2018-08-22T19:26:14.414Z,101613.67
2018-08-22T19:28:56.773Z,101616.66
2018-08-22T19:31:25.871Z,101622.47
2018-08-22T19:33:55.016Z,101621.12
2018-08-22T19:36:24.094Z,101618.78
2018-08-22T19:38:53.196Z,101615.70
2018-08-22T19:41:27.468Z,101620.04
2018-08-22T19:43:56.632Z,101623.44
2018-08-22T19:46:25.810Z,101612.61
2018-08-22T19:48:55.085Z,101615.20
2018-08-22T19:51:24.428Z,101617.42
2018-08-22T19:53:59.060Z,101620.73
2018-08-22T19:56:30.435Z,101623.44
2018-08-22T19:58:59.753Z,101623.89
2018-08-22T20:01:30.326Z,101621.79
2018-08-22T20:03:59.452Z,101627.49
2018-08-22T20:06:28.728Z,101626.20
2018-08-22T20:08:59.050Z,101622.81
2018-08-22T20:11:28.506Z,101628.92
2018-08-22T20:13:59.450Z,101630.36
2018-08-22T20:16:28.579Z,101630.06
2018-08-22T20:18:58.964Z,101629.98
2018-08-22T20:21:32.019Z,101630.47
2018-08-22T20:24:01.899Z,101629.30
2018-08-22T20:26:31.477Z,101622.16
2018-08-22T20:29:01.607Z,101627.07
2018-08-22T20:31:32.276Z,101626.13
2018-08-22T20:34:12.295Z,101633.54
2018-08-22T20:36:44.143Z,101633.26
2018-08-22T20:39:14.154Z,101633.83
2018-08-22T20:41:43.868Z,101631.53
2018-08-22T20:44:19.925Z,101631.52
2018-08-22T20:46:54.390Z,101630.66
2018-08-22T20:49:23.496Z,101631.31
2018-08-22T20:51:52.672Z,101633.15
2018-08-22T20:54:24.159Z,101627.94
2018-08-22T20:56:58.590Z,101623.67
2018-08-22T20:59:27.770Z,101623.91
2018-08-22T21:02:03.807Z,101628.83
2018-08-22T21:04:33.623Z,101625.27
2018-08-22T21:07:03.081Z,101631.83
2018-08-22T21:09:32.256Z,101620.15
2018-08-22T21:12:01.330Z,101626.89
2018-08-22T21:14:31.086Z,101620.53
2018-08-22T21:17:00.292Z,101623.53
2018-08-22T21:19:29.416Z,101626.80
2018-08-22T21:21:58.684Z,101624.97
2018-08-22T21:24:28.028Z,101623.81
2018-08-22T21:26:57.188Z,101616.27
2018-08-22T21:29:26.319Z,101618.11
2018-08-22T21:31:55.428Z,101623.81
2018-08-22T21:34:24.518Z,101613.00
2018-08-22T21:36:53.583Z,101609.70
2018-08-22T21:39:23.644Z,101609.78
2018-08-22T21:41:52.970Z,101605.73
2018-08-22T21:44:23.111Z,101604.38
2018-08-22T21:46:58.498Z,101604.88
2018-08-22T21:49:28.266Z,101605.92
2018-08-22T21:51:59.766Z,101602.36
2018-08-22T21:54:29.111Z,101608.55
2018-08-22T21:56:58.174Z,101611.81
2018-08-22T21:59:27.692Z,101601.20
2018-08-22T22:02:02.019Z,101598.88
2018-08-22T22:04:33.803Z,101603.91
2018-08-22T22:07:04.035Z,101601.58
2018-08-22T22:09:33.522Z,101599.85
2018-08-22T22:12:03.285Z,101605.70
2018-08-22T22:14:35.453Z,101599.45
2018-08-22T22:17:05.206Z,101596.36
2018-08-22T22:19:36.035Z,101597.15
2018-08-22T22:22:05.364Z,101592.61
2018-08-22T22:24:43.695Z,101590.96
2018-08-22T22:27:13.183Z,101587.28
2018-08-22T22:29:42.244Z,101589.98
2018-08-22T22:32:11.295Z,101588.14
2018-08-22T22:34:40.536Z,101588.34
2018-08-22T22:37:09.619Z,101589.80
2018-08-22T22:39:44.884Z,101593.07
2018-08-22T22:42:19.408Z,101583.13
2018-08-22T22:44:49.778Z,101581.86
2018-08-22T22:47:24.271Z,101580.13
2018-08-22T22:49:53.420Z,101580.13
2018-08-22T22:52:28.989Z,101580.91
2018-08-22T22:54:59.244Z,101576.08
2018-08-22T22:57:29.482Z,101571.16
2018-08-22T22:59:59.214Z,101569.70
2018-08-22T23:02:28.691Z,101569.81
2018-08-22T23:04:58.549Z,101566.63
2018-08-22T23:07:30.188Z,101563.92
2018-08-22T23:10:00.504Z,101564.48
2018-08-22T23:12:33.788Z,101560.44
2018-08-22T23:15:03.056Z,101566.41
2018-08-22T23:17:32.111Z,101566.70
2018-08-22T23:20:12.955Z,101560.55
2018-08-22T23:22:42.085Z,101558.42
2018-08-22T23:25:11.544Z,101556.50
2018-08-22T23:27:41.127Z,101547.12
2018-08-22T23:30:10.756Z,101549.41
2018-08-22T23:32:39.884Z,101541.89
2018-08-22T23:35:28.201Z,101545.73
2018-08-22T23:38:00.163Z,101539.56
2018-08-22T23:40:30.355Z,101541.62
2018-08-22T23:42:59.492Z,101541.70
2018-08-22T23:45:28.782Z,101535.52
2018-08-22T23:47:57.827Z,101533.11
2018-08-22T23:50:45.286Z,101526.55
2018-08-22T23:53:14.417Z,101521.14
2018-08-22T23:55:43.525Z,101519.20
2018-08-22T23:58:12.742Z,101513.72
